Portada
METAR-TAF:

METAR-TAF

Aeroports :

Sakon Nakhon, Tailàndia

latitud: 17-11-42N, longitud: 104-07-08E, altitud: 161 m

Observació

L'informe es va fer fa 24 minuts, a les 08:00 UTC
Vent 3 kt del Sud, variant entre Est i Oest/Sud-Oest
Temperatura 33°C
Humitat 53%
Pressió 1007 hPa
Visibilitat 10 km o més
Núvols disperses a una alçada de 3500 ft

METAR: VTUI 230800Z 17003KT 080V240 9999 SCT035 33/22 Q1007 NOSIG

Hora: 15:24 (08:24 UTC)

Pronòstic

L'informe es va fer fa 3 hores i 24 minuts, a les 05:00 UTC
Pronòstic vàlid del 23 a les 06 UTC al 24 a les 06 UTC
Vent 4 kt del Sud-Est
Visibilitat 10 km o més
Escasses núvols a una alçada de 2500 ft

TAF: VTUI 230500Z 2306/2406 14004KT 9999 FEW025

Observacions i pronòstics meteorològics de més de 4000 aeroports (METAR i TAF).

Les estacions disponibles són els punts grocs i vermells al mapa.

Posi el ratolí al punt desitjat per veure el nom de l'estació.

Feu clic per veure les observacions i els pronòstics meteorològics.

Per canviar el mapa: feu clic els botons verds amb una creu de color negre per apropar; al botó verd amb un guió per allunyar la imatge; o en les fletxes verdes per a mapes adjacents.


METAR-TAF: